Time;durP1;ratioP1;P1;durP2;ratioP2;P2;SDS_P1;SDS_P2;PMS_P1;PMS_P2;Temp;Humidity;BMP_temperature;BMP_pressure;BME280_temperature;BME280_humidity;BME280_pressure;Samples;Min_cycle;Max_cycle;Signal;HPM_P1;HPM_P2
2022/03/13 00:04:26;;;;;;;11.18;5.65;;;;;;;;;;10328601;28;20227;-74
2022/03/13 00:09:27;;;;;;;7.88;5.72;;;;;;;;;;10345221;28;20226;-74
2022/03/13 00:14:28;;;;;;;8.43;6.00;;;;;;;;;;10339224;28;20240;-74
2022/03/13 00:19:33;;;;;;;9.32;7.40;;;;;;;;;;10342234;28;20208;-74
2022/03/13 00:24:34;;;;;;;14.45;6.68;;;;;;;;;;10341426;28;20363;-74
2022/03/13 00:29:36;;;;;;;9.48;7.28;;;;;;;;;;10343579;28;20759;-74
2022/03/13 00:34:38;;;;;;;7.35;6.63;;;;;;;;;;10346064;28;20216;-74
2022/03/13 00:39:40;;;;;;;6.47;5.82;;;;;;;;;;10347525;28;20700;-74
2022/03/13 00:44:41;;;;;;;12.48;6.68;;;;;;;;;;10347892;28;20250;-73
2022/03/13 00:49:42;;;;;;;7.43;5.90;;;;;;;;;;10343503;28;20228;-73
2022/03/13 00:54:43;;;;;;;6.30;5.70;;;;;;;;;;10344245;28;20207;-74
2022/03/13 00:59:46;;;;;;;6.43;5.85;;;;;;;;;;10346625;28;20312;-74
2022/03/13 01:04:47;;;;;;;10.37;6.93;;;;;;;;;;10343882;28;20220;-73
2022/03/13 01:09:48;;;;;;;12.02;6.88;;;;;;;;;;10342124;28;20653;-73
2022/03/13 01:14:49;;;;;;;8.80;5.75;;;;;;;;;;10347124;28;20211;-74
2022/03/13 01:19:50;;;;;;;7.47;6.25;;;;;;;;;;10340287;28;20235;-73
2022/03/13 01:24:53;;;;;;;11.38;5.97;;;;;;;;;;10342097;28;20219;-73
2022/03/13 01:29:54;;;;;;;9.60;6.47;;;;;;;;;;10337524;28;20212;-72
2022/03/13 01:34:55;;;;;;;7.43;5.80;;;;;;;;;;10337478;28;20223;-73
2022/03/13 01:39:58;;;;;;;8.03;6.10;;;;;;;;;;10341523;28;20228;-73
2022/03/13 01:44:59;;;;;;;7.80;6.40;;;;;;;;;;10336606;28;20581;-72
2022/03/13 01:50:00;;;;;;;10.50;5.97;;;;;;;;;;10339999;28;20246;-73
2022/03/13 01:55:02;;;;;;;7.43;5.33;;;;;;;;;;10335462;28;20197;-72
2022/03/13 02:00:04;;;;;;;6.37;5.43;;;;;;;;;;10341537;28;20209;-72
2022/03/13 02:05:05;;;;;;;9.97;6.80;;;;;;;;;;10341150;28;20208;-72
2022/03/13 02:10:06;;;;;;;9.17;5.87;;;;;;;;;;10335369;28;20292;-72
2022/03/13 02:15:07;;;;;;;9.20;6.20;;;;;;;;;;10339805;28;20209;-73
2022/03/13 02:20:13;;;;;;;7.53;5.90;;;;;;;;;;10340752;28;20200;-72
2022/03/13 02:25:18;;;;;;;6.77;5.33;;;;;;;;;;10334430;28;20205;-72
2022/03/13 02:30:24;;;;;;;8.63;5.77;;;;;;;;;;10329683;28;20673;-72
2022/03/13 02:35:28;;;;;;;6.97;5.43;;;;;;;;;;10333335;28;20215;-72
2022/03/13 02:40:29;;;;;;;6.50;5.00;;;;;;;;;;10326469;28;20232;-73
2022/03/13 02:45:35;;;;;;;6.73;4.97;;;;;;;;;;10329504;28;20614;-73
2022/03/13 02:50:36;;;;;;;6.00;4.93;;;;;;;;;;10331253;28;20267;-72
2022/03/13 02:55:37;;;;;;;11.83;4.60;;;;;;;;;;10334319;28;20294;-72
2022/03/13 03:00:41;;;;;;;8.15;5.10;;;;;;;;;;10332721;28;20578;-72
2022/03/13 03:05:42;;;;;;;8.27;4.97;;;;;;;;;;10326585;28;20203;-72
2022/03/13 03:10:44;;;;;;;6.77;5.10;;;;;;;;;;10334720;28;20295;-72
2022/03/13 03:15:45;;;;;;;5.97;5.37;;;;;;;;;;10328438;28;20587;-72
2022/03/13 03:20:46;;;;;;;11.27;5.83;;;;;;;;;;10333826;28;20204;-72
2022/03/13 03:25:47;;;;;;;7.97;5.20;;;;;;;;;;10334499;28;20216;-70
2022/03/13 03:30:48;;;;;;;7.63;6.10;;;;;;;;;;10328255;28;20212;-71
2022/03/13 03:35:49;;;;;;;6.50;5.00;;;;;;;;;;10334339;28;20200;-71
2022/03/13 03:40:51;;;;;;;7.70;5.20;;;;;;;;;;10332420;28;20645;-72
2022/03/13 03:45:52;;;;;;;8.50;5.63;;;;;;;;;;10334401;28;20203;-71
2022/03/13 03:50:53;;;;;;;8.50;5.20;;;;;;;;;;10324961;28;20243;-71
2022/03/13 03:55:56;;;;;;;7.03;5.37;;;;;;;;;;10326630;28;20228;-71
2022/03/13 04:00:57;;;;;;;7.83;5.70;;;;;;;;;;10331728;28;20232;-71
2022/03/13 04:05:58;;;;;;;6.10;5.37;;;;;;;;;;10333074;28;20207;-70
2022/03/13 04:11:00;;;;;;;6.83;5.43;;;;;;;;;;10337739;28;20208;-71
2022/03/13 04:16:01;;;;;;;10.13;5.57;;;;;;;;;;10327595;28;20635;-71
2022/03/13 04:21:03;;;;;;;8.93;5.63;;;;;;;;;;10336745;28;23796;-71
2022/03/13 04:26:05;;;;;;;8.40;5.20;;;;;;;;;;10337694;28;20547;-71
2022/03/13 04:31:08;;;;;;;6.00;5.20;;;;;;;;;;10335830;28;20213;-71
2022/03/13 04:36:13;;;;;;;5.47;4.83;;;;;;;;;;10331679;28;20340;-71
2022/03/13 04:41:14;;;;;;;6.80;4.57;;;;;;;;;;10332922;28;20818;-71
2022/03/13 04:46:15;;;;;;;6.37;4.80;;;;;;;;;;10327153;28;20295;-71
2022/03/13 04:51:16;;;;;;;7.10;4.97;;;;;;;;;;10330090;28;20351;-71
2022/03/13 04:56:17;;;;;;;7.03;5.43;;;;;;;;;;10337946;28;20999;-71
2022/03/13 05:01:19;;;;;;;6.17;4.70;;;;;;;;;;10333961;28;20224;-71
2022/03/13 05:06:20;;;;;;;6.53;4.70;;;;;;;;;;10328669;28;20282;-71
2022/03/13 05:11:23;;;;;;;6.67;4.83;;;;;;;;;;10333283;28;20239;-71
2022/03/13 05:16:24;;;;;;;5.47;4.80;;;;;;;;;;10338394;28;20217;-71
2022/03/13 05:21:25;;;;;;;8.73;5.50;;;;;;;;;;10337745;28;20606;-70
2022/03/13 05:26:27;;;;;;;7.17;4.73;;;;;;;;;;10338590;28;20219;-71
2022/03/13 05:31:28;;;;;;;8.80;5.25;;;;;;;;;;10335303;28;20334;-71
2022/03/13 05:36:29;;;;;;;6.23;4.90;;;;;;;;;;10337764;28;20219;-70
2022/03/13 05:41:33;;;;;;;5.50;4.47;;;;;;;;;;10336606;28;20249;-71
2022/03/13 05:46:36;;;;;;;8.60;5.10;;;;;;;;;;10332187;28;20225;-71
2022/03/13 05:51:40;;;;;;;7.37;5.07;;;;;;;;;;10338595;28;20224;-71
2022/03/13 05:56:42;;;;;;;5.73;4.77;;;;;;;;;;10327680;28;20716;-71
2022/03/13 06:01:43;;;;;;;6.50;5.60;;;;;;;;;;10337210;28;20228;-71
2022/03/13 06:06:45;;;;;;;7.37;5.10;;;;;;;;;;10338816;28;20614;-71
2022/03/13 06:11:46;;;;;;;6.07;4.57;;;;;;;;;;10331656;28;20204;-69
2022/03/13 06:16:47;;;;;;;5.63;4.03;;;;;;;;;;10332468;28;20208;-70
2022/03/13 06:21:49;;;;;;;7.10;4.37;;;;;;;;;;10336069;28;20255;-70
2022/03/13 06:26:50;;;;;;;5.00;4.50;;;;;;;;;;10329102;28;20591;-71
2022/03/13 06:31:52;;;;;;;4.80;4.40;;;;;;;;;;10334778;28;20234;-71
2022/03/13 06:36:54;;;;;;;5.80;4.73;;;;;;;;;;10335585;28;20216;-72
2022/03/13 06:41:55;;;;;;;5.63;4.60;;;;;;;;;;10335706;28;21243;-71
2022/03/13 06:46:56;;;;;;;5.50;4.80;;;;;;;;;;10331396;28;20209;-71
2022/03/13 06:51:57;;;;;;;4.40;4.00;;;;;;;;;;10332035;28;20208;-72
2022/03/13 06:56:58;;;;;;;7.33;4.90;;;;;;;;;;10329876;28;20205;-72
2022/03/13 07:01:59;;;;;;;8.23;4.93;;;;;;;;;;10336040;28;20220;-71
2022/03/13 07:07:00;;;;;;;5.60;4.70;;;;;;;;;;10333152;28;20759;-72
2022/03/13 07:12:01;;;;;;;7.82;4.78;;;;;;;;;;10330360;28;20216;-73
2022/03/13 07:17:02;;;;;;;6.03;5.07;;;;;;;;;;10327645;28;20196;-73
2022/03/13 07:22:04;;;;;;;4.97;4.57;;;;;;;;;;10333402;28;20503;-73
2022/03/13 07:27:05;;;;;;;8.27;4.47;;;;;;;;;;10336700;28;20305;-73
2022/03/13 07:32:06;;;;;;;5.97;4.60;;;;;;;;;;10332031;28;20230;-73
2022/03/13 07:37:10;;;;;;;6.53;4.53;;;;;;;;;;10329696;28;20205;-73
2022/03/13 07:42:12;;;;;;;6.82;4.80;;;;;;;;;;10335735;28;20228;-74
2022/03/13 07:47:14;;;;;;;5.32;4.03;;;;;;;;;;10328789;28;20196;-74
2022/03/13 07:52:16;;;;;;;7.70;5.20;;;;;;;;;;10333452;28;20576;-74
2022/03/13 07:57:17;;;;;;;8.05;4.60;;;;;;;;;;10330220;28;20222;-75
2022/03/13 08:02:18;;;;;;;4.70;4.25;;;;;;;;;;10330953;28;20573;-74
2022/03/13 08:07:19;;;;;;;6.45;3.88;;;;;;;;;;10329168;28;20599;-74
2022/03/13 08:12:21;;;;;;;5.53;4.35;;;;;;;;;;10327472;28;20204;-74
2022/03/13 08:17:22;;;;;;;5.75;4.35;;;;;;;;;;10327398;28;20212;-74
2022/03/13 08:22:23;;;;;;;5.25;3.53;;;;;;;;;;10327925;28;20213;-73
2022/03/13 08:27:25;;;;;;;6.22;5.10;;;;;;;;;;10335241;28;20371;-74
2022/03/13 08:32:26;;;;;;;4.53;4.13;;;;;;;;;;10337740;28;20223;-74
2022/03/13 08:37:27;;;;;;;6.45;4.38;;;;;;;;;;10338807;28;20660;-71
2022/03/13 08:42:28;;;;;;;7.00;4.35;;;;;;;;;;10333003;28;20224;-74
2022/03/13 08:47:29;;;;;;;5.47;4.35;;;;;;;;;;10339429;28;20303;-74
2022/03/13 08:52:30;;;;;;;4.68;4.03;;;;;;;;;;10345817;28;20215;-75
2022/03/13 08:57:31;;;;;;;6.18;4.65;;;;;;;;;;10340567;28;20195;-74
2022/03/13 09:02:32;;;;;;;4.90;4.20;;;;;;;;;;10347766;28;20666;-78
2022/03/13 09:07:34;;;;;;;5.68;4.90;;;;;;;;;;10349631;28;20683;-75
2022/03/13 09:12:36;;;;;;;5.68;4.03;;;;;;;;;;10343510;28;20207;-76
2022/03/13 09:17:37;;;;;;;5.63;4.20;;;;;;;;;;10345265;28;20215;-75
2022/03/13 09:22:38;;;;;;;4.43;4.03;;;;;;;;;;10342844;28;20208;-74
2022/03/13 09:27:39;;;;;;;6.57;4.20;;;;;;;;;;10347934;28;20259;-76
2022/03/13 09:32:41;;;;;;;4.05;3.85;;;;;;;;;;10344803;28;20221;-75
2022/03/13 09:37:42;;;;;;;4.13;3.83;;;;;;;;;;10341927;28;20207;-75
2022/03/13 09:42:44;;;;;;;4.47;4.05;;;;;;;;;;10346668;28;20692;-75
2022/03/13 09:47:45;;;;;;;4.50;4.10;;;;;;;;;;10346675;28;20234;-75
2022/03/13 09:52:46;;;;;;;5.72;4.55;;;;;;;;;;10343408;28;20214;-71
2022/03/13 09:57:48;;;;;;;4.85;4.22;;;;;;;;;;10348366;28;20213;-74
2022/03/13 10:02:52;;;;;;;4.65;4.35;;;;;;;;;;10343244;28;20274;-76
2022/03/13 10:08:02;;;;;;;4.80;4.30;;;;;;;;;;10348451;28;20244;-76
2022/03/13 10:13:04;;;;;;;8.40;4.82;;;;;;;;;;10343040;28;20733;-76
2022/03/13 10:18:11;;;;;;;5.07;4.68;;;;;;;;;;10343128;28;20200;-75
2022/03/13 10:23:19;;;;;;;5.05;4.75;;;;;;;;;;10344891;28;20649;-76
2022/03/13 10:28:25;;;;;;;6.43;5.03;;;;;;;;;;10342253;28;20255;-77
2022/03/13 10:33:27;;;;;;;4.93;4.60;;;;;;;;;;10349857;28;20219;-76
2022/03/13 10:38:34;;;;;;;5.00;4.60;;;;;;;;;;10346622;28;20286;-74
2022/03/13 10:43:46;;;;;;;9.85;5.07;;;;;;;;;;10346537;28;20262;-75
2022/03/13 10:48:47;;;;;;;5.63;5.07;;;;;;;;;;10339649;28;20201;-76
2022/03/13 10:53:49;;;;;;;5.70;5.20;;;;;;;;;;10344946;28;20201;-77
2022/03/13 10:58:50;;;;;;;6.45;5.30;;;;;;;;;;10343379;28;20609;-76
2022/03/13 11:03:55;;;;;;;5.13;4.70;;;;;;;;;;10344227;28;20227;-69
2022/03/13 11:08:56;;;;;;;5.22;4.72;;;;;;;;;;10340870;28;20227;-69
2022/03/13 11:13:59;;;;;;;5.60;5.13;;;;;;;;;;10345049;28;20208;-76
2022/03/13 11:19:05;;;;;;;5.32;4.93;;;;;;;;;;10345593;28;20211;-76
2022/03/13 11:24:06;;;;;;;5.55;5.05;;;;;;;;;;10344085;28;20217;-74
2022/03/13 11:29:10;;;;;;;5.40;5.00;;;;;;;;;;10347677;28;20223;-77
2022/03/13 11:34:19;;;;;;;5.65;5.25;;;;;;;;;;10342578;28;20696;-76
2022/03/13 11:39:27;;;;;;;4.90;4.55;;;;;;;;;;10341475;28;20255;-77
2022/03/13 11:44:28;;;;;;;5.28;4.88;;;;;;;;;;10344345;28;20294;-76
2022/03/13 11:49:37;;;;;;;5.20;4.70;;;;;;;;;;10340001;28;20204;-78
2022/03/13 11:54:47;;;;;;;5.13;4.70;;;;;;;;;;10339935;28;20326;-77
2022/03/13 12:00:23;;;;;;;5.18;4.78;;;;;;;;;;10342641;28;20663;-75
2022/03/13 12:05:25;;;;;;;5.30;4.88;;;;;;;;;;10340167;28;20233;-75
2022/03/13 12:10:30;;;;;;;5.15;4.75;;;;;;;;;;10337637;28;20201;-76
2022/03/13 12:15:31;;;;;;;5.63;5.22;;;;;;;;;;10339993;28;20623;-76
2022/03/13 12:20:33;;;;;;;7.78;5.15;;;;;;;;;;10340391;28;20210;-76
2022/03/13 12:25:36;;;;;;;5.20;4.90;;;;;;;;;;10338282;28;20259;-75
2022/03/13 12:30:37;;;;;;;5.90;5.50;;;;;;;;;;10341098;28;20207;-76
2022/03/13 12:35:38;;;;;;;5.97;5.22;;;;;;;;;;10343157;28;20205;-76
2022/03/13 12:40:48;;;;;;;5.13;4.72;;;;;;;;;;10336679;28;20232;-75
2022/03/13 12:45:53;;;;;;;4.60;4.40;;;;;;;;;;10341603;28;20580;-75
2022/03/13 12:50:55;;;;;;;5.35;5.00;;;;;;;;;;10337402;28;20205;-75
2022/03/13 12:55:56;;;;;;;5.25;4.80;;;;;;;;;;10339119;28;20224;-75
2022/03/13 13:00:57;;;;;;;5.68;5.38;;;;;;;;;;10339546;28;20216;-75
2022/03/13 13:05:59;;;;;;;5.47;5.00;;;;;;;;;;10339115;28;20699;-76
2022/03/13 13:10:59;;;;;;;6.15;5.47;;;;;;;;;;10338081;28;20197;-74
2022/03/13 13:16:01;;;;;;;5.13;4.75;;;;;;;;;;10343549;28;20200;-71
2022/03/13 13:21:08;;;;;;;6.43;5.93;;;;;;;;;;10348656;28;20290;-74
2022/03/13 13:26:09;;;;;;;5.90;5.45;;;;;;;;;;10347811;28;20193;-77
2022/03/13 13:31:13;;;;;;;6.53;5.88;;;;;;;;;;10350259;28;20213;-77
2022/03/13 13:36:19;;;;;;;5.25;4.95;;;;;;;;;;10346829;28;20760;-76
2022/03/13 13:41:25;;;;;;;5.70;5.20;;;;;;;;;;10346870;28;20239;-76
2022/03/13 13:46:33;;;;;;;6.25;5.65;;;;;;;;;;10347807;28;20672;-77
2022/03/13 13:51:36;;;;;;;6.55;6.15;;;;;;;;;;10344402;28;20561;-77
2022/03/13 13:56:39;;;;;;;5.10;4.82;;;;;;;;;;10346736;28;20213;-76
2022/03/13 14:01:45;;;;;;;5.82;5.30;;;;;;;;;;10343306;28;20323;-76
2022/03/13 14:06:47;;;;;;;5.53;5.22;;;;;;;;;;10343644;28;20197;-74
2022/03/13 14:11:48;;;;;;;5.00;4.57;;;;;;;;;;10343979;28;20255;-76
2022/03/13 14:16:49;;;;;;;8.45;7.72;;;;;;;;;;10346248;28;20572;-77
2022/03/13 14:21:51;;;;;;;7.53;6.72;;;;;;;;;;10345360;28;20266;-77
2022/03/13 14:26:52;;;;;;;6.78;6.20;;;;;;;;;;10342626;28;20743;-77
2022/03/13 14:31:54;;;;;;;6.70;6.30;;;;;;;;;;10343164;28;20755;-77
2022/03/13 14:36:58;;;;;;;5.40;4.63;;;;;;;;;;10340358;28;20228;-77
2022/03/13 14:41:59;;;;;;;5.15;4.85;;;;;;;;;;10340799;28;20229;-76
2022/03/13 14:47:00;;;;;;;5.07;4.85;;;;;;;;;;10341887;28;20208;-77
2022/03/13 14:52:02;;;;;;;4.60;4.40;;;;;;;;;;10344263;28;20278;-77
2022/03/13 14:57:03;;;;;;;4.60;4.30;;;;;;;;;;10343442;28;20271;-77
2022/03/13 15:02:04;;;;;;;5.43;4.97;;;;;;;;;;10343352;28;20215;-76
2022/03/13 15:07:05;;;;;;;6.18;5.65;;;;;;;;;;10343299;28;20593;-76
2022/03/13 15:12:10;;;;;;;4.13;3.83;;;;;;;;;;10341196;28;20200;-77
2022/03/13 15:17:11;;;;;;;4.85;4.53;;;;;;;;;;10339063;28;20292;-75
2022/03/13 15:22:14;;;;;;;3.58;3.28;;;;;;;;;;10340467;28;20792;-75
2022/03/13 15:27:17;;;;;;;3.25;3.03;;;;;;;;;;10339654;28;20641;-76
2022/03/13 15:32:18;;;;;;;3.28;3.08;;;;;;;;;;10340746;28;20216;-75
2022/03/13 15:37:19;;;;;;;3.20;3.05;;;;;;;;;;10343060;28;20203;-76
2022/03/13 15:42:22;;;;;;;3.38;3.22;;;;;;;;;;10338018;28;20244;-75
2022/03/13 15:47:23;;;;;;;3.58;3.38;;;;;;;;;;10340376;28;20575;-75
2022/03/13 15:52:25;;;;;;;3.70;3.13;;;;;;;;;;10337642;28;20212;-76
2022/03/13 15:57:26;;;;;;;4.40;2.97;;;;;;;;;;10341065;28;20274;-76
2022/03/13 16:02:28;;;;;;;3.08;2.97;;;;;;;;;;10338076;28;20232;-76
2022/03/13 16:07:29;;;;;;;3.47;3.28;;;;;;;;;;10341606;28;20628;-76
2022/03/13 16:12:30;;;;;;;3.30;3.10;;;;;;;;;;10339249;28;20282;-75
2022/03/13 16:17:31;;;;;;;3.00;2.80;;;;;;;;;;10339431;28;20211;-76
2022/03/13 16:22:36;;;;;;;2.83;2.72;;;;;;;;;;10340254;28;20269;-79
2022/03/13 16:27:38;;;;;;;3.05;2.88;;;;;;;;;;10340884;28;20193;-77
2022/03/13 16:32:39;;;;;;;4.10;3.60;;;;;;;;;;10340815;28;20328;-76
2022/03/13 16:37:40;;;;;;;2.65;2.55;;;;;;;;;;10338734;28;20235;-76
2022/03/13 16:42:41;;;;;;;3.38;2.90;;;;;;;;;;10339939;28;20308;-76
2022/03/13 16:47:42;;;;;;;3.70;3.10;;;;;;;;;;10339567;28;20239;-75
2022/03/13 16:52:44;;;;;;;3.35;3.15;;;;;;;;;;10347969;28;20586;-74
2022/03/13 16:57:45;;;;;;;2.92;2.80;;;;;;;;;;10347734;28;20587;-75
2022/03/13 17:02:47;;;;;;;3.90;3.15;;;;;;;;;;10347485;28;20221;-71
2022/03/13 17:07:48;;;;;;;3.30;3.10;;;;;;;;;;10347863;28;20221;-75
2022/03/13 17:12:49;;;;;;;3.65;3.30;;;;;;;;;;10345131;28;20575;-75
2022/03/13 17:17:55;;;;;;;3.25;3.05;;;;;;;;;;10348086;28;20200;-76
2022/03/13 17:22:58;;;;;;;9.10;4.28;;;;;;;;;;10348810;28;20259;-76
2022/03/13 17:27:59;;;;;;;3.70;3.40;;;;;;;;;;10346358;28;20244;-77
2022/03/13 17:33:04;;;;;;;4.07;3.78;;;;;;;;;;10343317;28;20216;-76
2022/03/13 17:38:05;;;;;;;3.22;2.97;;;;;;;;;;10340630;28;20236;-75
2022/03/13 17:43:06;;;;;;;3.63;3.42;;;;;;;;;;10340922;28;20298;-74
2022/03/13 17:48:07;;;;;;;3.78;3.60;;;;;;;;;;10341906;28;20938;-75
2022/03/13 17:53:09;;;;;;;4.28;3.88;;;;;;;;;;10342045;28;21090;-74
2022/03/13 17:58:10;;;;;;;4.75;4.38;;;;;;;;;;10341405;28;20291;-76
2022/03/13 18:03:11;;;;;;;3.05;2.85;;;;;;;;;;10346002;28;20250;-76
2022/03/13 18:08:12;;;;;;;3.38;3.13;;;;;;;;;;10342311;28;20199;-75
2022/03/13 18:13:13;;;;;;;5.00;4.70;;;;;;;;;;10343738;28;20205;-75
2022/03/13 18:18:15;;;;;;;7.15;6.13;;;;;;;;;;10342767;28;20209;-75
2022/03/13 18:23:16;;;;;;;9.63;8.63;;;;;;;;;;10338417;28;20239;-74
2022/03/13 18:28:17;;;;;;;6.82;5.50;;;;;;;;;;10341229;28;20205;-74
2022/03/13 18:33:20;;;;;;;5.82;5.05;;;;;;;;;;10335785;28;20247;-75
2022/03/13 18:38:21;;;;;;;4.47;4.07;;;;;;;;;;10336243;28;21048;-75
2022/03/13 18:43:22;;;;;;;5.85;5.35;;;;;;;;;;10338539;28;20244;-74
2022/03/13 18:48:24;;;;;;;7.43;5.28;;;;;;;;;;10339515;28;20209;-75
2022/03/13 18:53:26;;;;;;;8.00;5.90;;;;;;;;;;10337836;28;20649;-75
2022/03/13 18:58:27;;;;;;;6.82;6.13;;;;;;;;;;10335142;28;20852;-75
2022/03/13 19:03:28;;;;;;;6.63;4.85;;;;;;;;;;10340226;28;20212;-75
2022/03/13 19:08:30;;;;;;;5.05;4.68;;;;;;;;;;10341642;28;20212;-75
2022/03/13 19:13:32;;;;;;;5.38;4.82;;;;;;;;;;10341268;28;20208;-75
2022/03/13 19:18:36;;;;;;;5.40;4.97;;;;;;;;;;10339353;28;20216;-75
2022/03/13 19:23:37;;;;;;;4.80;4.38;;;;;;;;;;10334352;28;20231;-76
2022/03/13 19:28:39;;;;;;;4.72;4.07;;;;;;;;;;10338942;28;20192;-75
2022/03/13 19:33:40;;;;;;;4.15;3.85;;;;;;;;;;10342324;28;20331;-75
2022/03/13 19:38:41;;;;;;;4.18;3.67;;;;;;;;;;10338319;28;20232;-75
2022/03/13 19:43:42;;;;;;;4.53;4.10;;;;;;;;;;10339051;28;20240;-75
2022/03/13 19:48:43;;;;;;;4.20;3.80;;;;;;;;;;10337882;28;20220;-75
2022/03/13 19:53:46;;;;;;;127.57;54.92;;;;;;;;;;10341875;28;21077;-75
2022/03/13 19:58:47;;;;;;;7.13;4.40;;;;;;;;;;10338542;28;20231;-75
2022/03/13 20:03:49;;;;;;;9.85;8.90;;;;;;;;;;10337574;28;20220;-75
2022/03/13 20:08:50;;;;;;;4.70;4.30;;;;;;;;;;10335874;28;20259;-76
2022/03/13 20:13:53;;;;;;;4.13;3.80;;;;;;;;;;10343119;28;20227;-75
2022/03/13 20:18:54;;;;;;;5.40;4.53;;;;;;;;;;10334222;28;20212;-75
2022/03/13 20:23:55;;;;;;;5.30;4.00;;;;;;;;;;10347592;28;20713;-76
2022/03/13 20:28:56;;;;;;;4.20;3.90;;;;;;;;;;10345509;28;20228;-75
2022/03/13 20:33:58;;;;;;;4.35;4.05;;;;;;;;;;10341398;28;20224;-75
2022/03/13 20:38:59;;;;;;;4.75;4.25;;;;;;;;;;10380237;28;20318;-75
2022/03/13 20:44:00;;;;;;;4.30;3.78;;;;;;;;;;10344819;28;20223;-75
2022/03/13 20:49:01;;;;;;;5.07;4.60;;;;;;;;;;10341494;28;20208;-75
2022/03/13 20:54:03;;;;;;;5.00;4.60;;;;;;;;;;10338360;28;20573;-75
2022/03/13 20:59:04;;;;;;;4.72;4.38;;;;;;;;;;10345301;28;20211;-75
2022/03/13 21:04:05;;;;;;;4.18;3.88;;;;;;;;;;10345414;28;20216;-75
2022/03/13 21:09:08;;;;;;;4.55;4.18;;;;;;;;;;10343338;28;20236;-75
2022/03/13 21:14:10;;;;;;;4.53;4.15;;;;;;;;;;10345938;28;20208;-75
2022/03/13 21:19:12;;;;;;;4.57;4.22;;;;;;;;;;10344589;28;20216;-75
2022/03/13 21:24:14;;;;;;;4.25;3.95;;;;;;;;;;10343934;28;20221;-74
2022/03/13 21:29:15;;;;;;;7.05;4.68;;;;;;;;;;10340614;28;20688;-75
2022/03/13 21:34:17;;;;;;;5.47;4.97;;;;;;;;;;10342088;28;20232;-75
2022/03/13 21:39:18;;;;;;;7.60;5.68;;;;;;;;;;10341516;28;20311;-74
2022/03/13 21:44:19;;;;;;;10.00;6.72;;;;;;;;;;10340805;28;20248;-74
2022/03/13 21:49:20;;;;;;;10.63;7.07;;;;;;;;;;10343073;28;20220;-74
2022/03/13 21:54:22;;;;;;;9.25;7.32;;;;;;;;;;10341567;28;20203;-75
2022/03/13 21:59:23;;;;;;;8.60;7.28;;;;;;;;;;10342514;28;20251;-74
2022/03/13 22:04:24;;;;;;;13.13;8.20;;;;;;;;;;10340739;28;21043;-75
2022/03/13 22:09:25;;;;;;;12.32;7.93;;;;;;;;;;10341895;28;20219;-74
2022/03/13 22:14:30;;;;;;;10.10;7.45;;;;;;;;;;10341274;28;20204;-75
2022/03/13 22:19:35;;;;;;;9.20;5.95;;;;;;;;;;10342040;28;20204;-74
2022/03/13 22:24:36;;;;;;;5.80;5.20;;;;;;;;;;10338173;28;20215;-74
2022/03/13 22:29:37;;;;;;;5.80;5.22;;;;;;;;;;10339270;28;20629;-74
2022/03/13 22:34:38;;;;;;;7.05;5.45;;;;;;;;;;10343303;28;20216;-75
2022/03/13 22:39:41;;;;;;;8.27;5.60;;;;;;;;;;10337710;28;20232;-75
2022/03/13 22:44:42;;;;;;;5.75;5.15;;;;;;;;;;10338436;28;20208;-75
2022/03/13 22:49:44;;;;;;;7.43;5.53;;;;;;;;;;10339266;28;20204;-75
2022/03/13 22:54:45;;;;;;;6.93;5.53;;;;;;;;;;10334830;28;20598;-74
2022/03/13 22:59:46;;;;;;;5.95;5.15;;;;;;;;;;10341244;28;20201;-74
2022/03/13 23:04:54;;;;;;;8.68;5.47;;;;;;;;;;10341466;28;20232;-74
2022/03/13 23:09:56;;;;;;;7.32;6.07;;;;;;;;;;10340622;28;20712;-74
2022/03/13 23:14:58;;;;;;;7.47;5.50;;;;;;;;;;10338201;28;20247;-75
2022/03/13 23:20:05;;;;;;;8.32;5.47;;;;;;;;;;10339224;28;20198;-73
2022/03/13 23:25:06;;;;;;;9.23;5.57;;;;;;;;;;10334900;28;20222;-75
2022/03/13 23:30:08;;;;;;;6.97;5.75;;;;;;;;;;10336708;28;20258;-74
2022/03/13 23:35:14;;;;;;;6.45;5.72;;;;;;;;;;10333885;28;20222;-74
2022/03/13 23:40:15;;;;;;;9.05;5.32;;;;;;;;;;10334373;28;20240;-75
2022/03/13 23:45:16;;;;;;;6.22;5.20;;;;;;;;;;10334290;28;20212;-75
2022/03/13 23:50:18;;;;;;;6.65;5.63;;;;;;;;;;10337075;28;20201;-74
2022/03/13 23:55:19;;;;;;;10.10;5.72;;;;;;;;;;10334621;28;20310;-74
